createdAt,value
2019-05-18T00:02:00.286Z,24.50
2019-05-18T00:04:29.571Z,24.57
2019-05-18T00:06:58.996Z,24.45
2019-05-18T00:09:28.381Z,24.12
2019-05-18T00:11:57.738Z,25.30
2019-05-18T00:14:26.979Z,24.63
2019-05-18T00:16:56.298Z,23.52
2019-05-18T00:19:25.644Z,23.80
2019-05-18T00:21:55.296Z,24.23
2019-05-18T00:24:24.602Z,24.10
2019-05-18T00:26:53.995Z,24.52
2019-05-18T00:29:23.296Z,24.52
2019-05-18T00:31:52.616Z,24.55
2019-05-18T00:34:21.947Z,25.48
2019-05-18T00:36:51.330Z,25.05
2019-05-18T00:39:20.634Z,26.23
2019-05-18T00:41:49.932Z,26.00
2019-05-18T00:44:19.212Z,26.85
2019-05-18T00:46:48.511Z,25.65
2019-05-18T00:49:17.817Z,26.00
2019-05-18T00:51:47.130Z,25.10
2019-05-18T00:54:16.475Z,25.15
2019-05-18T00:56:45.777Z,26.60
2019-05-18T00:59:16.179Z,25.35
2019-05-18T01:01:45.930Z,25.82
2019-05-18T01:04:15.230Z,25.12
2019-05-18T01:06:44.528Z,24.45
2019-05-18T01:09:13.876Z,26.85
2019-05-18T01:11:43.159Z,24.75
2019-05-18T01:14:12.457Z,25.57
2019-05-18T01:16:41.761Z,24.95
2019-05-18T01:19:11.063Z,25.43
2019-05-18T01:21:40.358Z,25.75
2019-05-18T01:24:09.640Z,25.82
2019-05-18T01:26:38.942Z,26.25
2019-05-18T01:29:08.349Z,26.62
2019-05-18T01:31:37.623Z,25.55
2019-05-18T01:34:06.956Z,25.27
2019-05-18T01:36:36.300Z,24.70
2019-05-18T01:39:07.029Z,25.43
2019-05-18T01:41:36.355Z,25.65
2019-05-18T01:44:05.640Z,27.20
2019-05-18T01:46:34.947Z,26.00
2019-05-18T01:49:04.315Z,27.52
2019-05-18T01:51:33.652Z,26.82
2019-05-18T01:54:02.934Z,25.65
2019-05-18T01:56:32.291Z,26.87
2019-05-18T01:59:01.693Z,25.55
2019-05-18T02:01:31.015Z,26.33
2019-05-18T02:04:00.328Z,26.60
2019-05-18T02:06:29.635Z,25.97
2019-05-18T02:08:58.933Z,24.95
2019-05-18T02:11:28.242Z,25.37
2019-05-18T02:13:57.492Z,25.50
2019-05-18T02:16:26.814Z,25.35
2019-05-18T02:18:56.090Z,25.48
2019-05-18T02:21:25.385Z,26.57
2019-05-18T02:23:54.718Z,25.40
2019-05-18T02:26:24.063Z,24.55
2019-05-18T02:28:53.354Z,23.47
2019-05-18T02:31:22.849Z,26.30
2019-05-18T02:33:52.116Z,25.37
2019-05-18T02:36:21.345Z,25.75
2019-05-18T02:38:50.656Z,25.45
2019-05-18T02:41:20.095Z,24.45
2019-05-18T02:43:49.452Z,25.88
2019-05-18T02:46:18.884Z,26.35
2019-05-18T02:48:50.493Z,25.15
2019-05-18T02:51:19.350Z,25.62
2019-05-18T02:53:48.602Z,26.05
2019-05-18T02:56:17.882Z,26.02
2019-05-18T02:58:47.169Z,26.12
2019-05-18T03:01:16.438Z,25.48
2019-05-18T03:03:45.726Z,28.27
2019-05-18T03:06:14.982Z,28.45
2019-05-18T03:08:44.310Z,27.15
2019-05-18T03:11:13.555Z,26.82
2019-05-18T03:13:42.836Z,26.82
2019-05-18T03:16:12.194Z,27.13
2019-05-18T03:18:41.485Z,27.65
2019-05-18T03:21:10.856Z,29.02
2019-05-18T03:23:40.141Z,28.57
2019-05-18T03:26:09.468Z,31.37
2019-05-18T03:28:38.754Z,32.88
2019-05-18T03:31:08.103Z,32.38
2019-05-18T03:33:37.416Z,29.10
2019-05-18T03:36:06.791Z,28.65
2019-05-18T03:38:36.109Z,29.00
2019-05-18T03:41:05.584Z,27.52
2019-05-18T03:43:34.874Z,28.38
2019-05-18T03:46:04.211Z,27.80
2019-05-18T03:48:33.455Z,28.55
2019-05-18T03:51:02.727Z,28.65
2019-05-18T03:53:32.026Z,28.70
2019-05-18T03:56:01.303Z,29.20
2019-05-18T03:58:30.579Z,29.45
2019-05-18T04:00:59.854Z,30.08
2019-05-18T04:03:29.131Z,30.52
2019-05-18T04:05:58.376Z,28.45
2019-05-18T04:08:27.668Z,29.25
2019-05-18T04:10:56.943Z,29.42
2019-05-18T04:13:26.205Z,29.07
2019-05-18T04:15:55.498Z,29.87
2019-05-18T04:18:24.726Z,29.00
2019-05-18T04:20:54.030Z,28.80
2019-05-18T04:23:23.298Z,29.98
2019-05-18T04:25:52.652Z,29.90
2019-05-18T04:28:21.929Z,30.32
2019-05-18T04:30:51.220Z,29.48
2019-05-18T04:33:20.493Z,28.40
2019-05-18T04:35:49.807Z,29.12
2019-05-18T04:38:19.065Z,28.65
2019-05-18T04:40:48.346Z,27.95
2019-05-18T04:43:17.605Z,26.40
2019-05-18T04:45:46.999Z,28.27
2019-05-18T04:48:16.273Z,28.00
2019-05-18T04:50:45.686Z,28.52
2019-05-18T04:53:15.001Z,26.93
2019-05-18T04:55:44.292Z,26.25
2019-05-18T04:58:13.635Z,25.35
2019-05-18T05:00:42.939Z,25.85
2019-05-18T05:03:12.266Z,25.82
2019-05-18T05:05:41.533Z,26.60
2019-05-18T05:08:10.837Z,25.02
2019-05-18T05:10:40.137Z,25.70
2019-05-18T05:13:11.004Z,24.07
2019-05-18T05:15:40.401Z,24.10
2019-05-18T05:18:09.694Z,24.32
2019-05-18T05:20:38.939Z,26.23
2019-05-18T05:23:08.267Z,26.12
2019-05-18T05:25:37.683Z,26.95
2019-05-18T05:28:07.077Z,28.05
2019-05-18T05:30:39.427Z,28.20
2019-05-18T05:33:09.722Z,28.85
2019-05-18T05:35:39.125Z,28.90
2019-05-18T05:38:08.458Z,29.23
2019-05-18T05:40:39.671Z,27.80
2019-05-18T05:43:09.024Z,29.07
2019-05-18T05:45:38.353Z,28.05
2019-05-18T05:48:07.741Z,29.70
2019-05-18T05:50:38.864Z,29.57
2019-05-18T05:53:08.253Z,28.90
2019-05-18T05:55:40.709Z,29.23
2019-05-18T05:58:10.048Z,28.35
2019-05-18T06:00:39.440Z,28.10
2019-05-18T06:03:08.854Z,28.52
2019-05-18T06:05:38.239Z,28.60
2019-05-18T06:08:08.854Z,28.65
2019-05-18T06:10:38.222Z,27.02
2019-05-18T06:13:07.562Z,28.05
2019-05-18T06:15:36.977Z,27.40
2019-05-18T06:18:06.591Z,28.12
2019-05-18T06:20:50.510Z,29.07
2019-05-18T06:23:07.214Z,27.82
2019-05-18T06:25:36.693Z,28.62
2019-05-18T06:28:06.110Z,30.02
2019-05-18T06:30:35.457Z,27.20
2019-05-18T06:33:04.848Z,27.40
2019-05-18T06:35:36.756Z,27.98
2019-05-18T06:38:06.278Z,27.85
2019-05-18T06:40:35.625Z,27.05
2019-05-18T06:43:04.891Z,27.07
2019-05-18T06:45:34.229Z,27.55
2019-05-18T06:48:03.646Z,27.17
2019-05-18T06:50:33.155Z,28.05
2019-05-18T06:53:02.592Z,29.50
2019-05-18T06:55:32.636Z,28.85
2019-05-18T06:58:02.201Z,27.22
2019-05-18T07:00:32.790Z,26.95
2019-05-18T07:03:08.355Z,28.70
2019-05-18T07:05:52.391Z,26.17
2019-05-18T07:08:46.372Z,25.52
2019-05-18T07:11:21.168Z,25.77
2019-05-18T07:14:33.248Z,25.52
2019-05-18T07:17:35.043Z,23.35
2019-05-18T07:20:08.153Z,24.05
2019-05-18T07:22:38.903Z,23.60
2019-05-18T07:25:08.751Z,23.35
2019-05-18T07:27:43.631Z,22.20
2019-05-18T07:30:19.636Z,22.52
2019-05-18T07:32:51.522Z,22.60
2019-05-18T07:35:21.267Z,22.32
2019-05-18T07:37:50.610Z,21.60
2019-05-18T07:40:20.246Z,21.00
2019-05-18T07:42:55.495Z,20.15
2019-05-18T07:45:26.323Z,20.00
2019-05-18T07:47:55.960Z,20.52
2019-05-18T07:50:25.389Z,19.32
2019-05-18T07:52:54.725Z,19.17
2019-05-18T07:55:24.075Z,20.12
2019-05-18T07:57:53.521Z,18.07
2019-05-18T08:00:22.878Z,18.40
2019-05-18T08:02:52.304Z,17.35
2019-05-18T08:05:21.574Z,17.62
2019-05-18T08:07:51.102Z,18.12
2019-05-18T08:10:34.601Z,17.35
2019-05-18T08:13:03.992Z,16.80
2019-05-18T08:15:33.339Z,17.42
2019-05-18T08:18:02.820Z,16.12
2019-05-18T08:20:32.162Z,15.90
2019-05-18T08:23:01.594Z,16.67
2019-05-18T08:25:30.913Z,16.17
2019-05-18T08:28:00.365Z,15.50
2019-05-18T08:30:29.875Z,15.88
2019-05-18T08:32:59.320Z,16.27
2019-05-18T08:35:31.675Z,15.13
2019-05-18T08:38:01.039Z,13.65
2019-05-18T08:40:30.397Z,11.68
2019-05-18T08:42:59.764Z,12.33
2019-05-18T08:45:55.173Z,10.08
2019-05-18T08:48:24.517Z,10.03
2019-05-18T08:50:53.823Z,10.63
2019-05-18T08:53:23.214Z,8.93
2019-05-18T08:55:55.092Z,9.90
2019-05-18T08:58:23.913Z,11.10
2019-05-18T09:01:10.672Z,11.38
2019-05-18T09:03:40.018Z,12.45
2019-05-18T09:06:10.990Z,11.65
2019-05-18T09:08:40.429Z,12.33
2019-05-18T09:11:09.804Z,12.85
2019-05-18T09:13:39.742Z,13.05
2019-05-18T09:16:09.281Z,13.28
2019-05-18T09:18:38.634Z,13.78
2019-05-18T09:21:08.219Z,13.22
2019-05-18T09:23:39.302Z,13.20
2019-05-18T09:26:08.737Z,13.50
2019-05-18T09:28:38.238Z,13.50
2019-05-18T09:31:07.832Z,14.10
2019-05-18T09:33:39.433Z,13.40
2019-05-18T09:36:08.894Z,14.40
2019-05-18T09:38:38.598Z,13.88
2019-05-18T09:41:11.151Z,14.43
2019-05-18T09:46:11.829Z,14.63
2019-05-18T09:48:41.200Z,14.28
2019-05-18T09:51:10.565Z,15.10
2019-05-18T09:53:50.634Z,15.70
2019-05-18T09:56:11.238Z,15.03
2019-05-18T09:58:44.738Z,13.58
2019-05-18T10:01:13.875Z,14.30
2019-05-18T10:03:43.417Z,14.53
2019-05-18T10:06:22.965Z,15.75
2019-05-18T10:08:57.455Z,17.55
2019-05-18T10:11:26.561Z,18.82
2019-05-18T10:13:58.029Z,18.65
2019-05-18T10:16:38.429Z,18.30
2019-05-18T10:19:07.880Z,18.05
2019-05-18T10:21:40.513Z,17.20
2019-05-18T10:24:11.289Z,17.77
2019-05-18T10:26:43.791Z,16.40
2019-05-18T10:29:19.152Z,17.45
2019-05-18T10:31:48.691Z,17.62
2019-05-18T10:34:17.985Z,19.12
2019-05-18T10:36:48.720Z,18.57
2019-05-18T10:39:18.122Z,15.85
2019-05-18T10:41:47.476Z,12.05
2019-05-18T10:44:18.154Z,11.22
2019-05-18T10:46:47.743Z,11.95
2019-05-18T10:49:17.155Z,12.75
2019-05-18T10:51:46.642Z,12.85
2019-05-18T10:54:16.063Z,12.43
2019-05-18T10:56:46.857Z,11.53
2019-05-18T10:59:16.330Z,12.15
2019-05-18T11:01:45.719Z,11.43
2019-05-18T11:04:17.933Z,12.55
2019-05-18T11:06:50.214Z,12.07
2019-05-18T11:09:21.350Z,12.78
2019-05-18T11:11:50.733Z,11.33
2019-05-18T11:14:20.117Z,12.33
2019-05-18T11:16:49.589Z,11.18
2019-05-18T11:19:18.982Z,11.25
2019-05-18T11:21:54.262Z,11.70
2019-05-18T11:24:23.782Z,12.80
2019-05-18T11:26:53.126Z,12.93
2019-05-18T11:29:23.799Z,11.80
2019-05-18T11:31:53.826Z,11.65
2019-05-18T11:34:23.200Z,11.22
2019-05-18T11:36:52.675Z,11.10
2019-05-18T11:39:22.083Z,10.30
2019-05-18T11:41:51.898Z,10.03
2019-05-18T11:44:21.254Z,9.58
2019-05-18T11:46:52.753Z,12.20
2019-05-18T11:49:23.759Z,11.30
2019-05-18T11:51:53.132Z,10.68
2019-05-18T11:54:22.551Z,12.78
2019-05-18T11:56:52.013Z,10.63
2019-05-18T11:59:23.378Z,10.48
2019-05-18T12:01:52.817Z,9.60
2019-05-18T12:04:24.776Z,10.08
2019-05-18T12:06:54.334Z,8.23
2019-05-18T12:09:23.748Z,10.32
2019-05-18T12:11:53.076Z,8.30
2019-05-18T12:14:22.417Z,8.48
2019-05-18T12:16:51.811Z,9.05
2019-05-18T12:19:21.126Z,8.15
2019-05-18T12:21:50.496Z,8.00
2019-05-18T12:24:19.856Z,8.40
2019-05-18T12:26:49.395Z,7.60
2019-05-18T12:29:18.722Z,7.62
2019-05-18T12:31:48.102Z,7.30
2019-05-18T12:34:18.940Z,7.10
2019-05-18T12:36:48.323Z,6.87
2019-05-18T12:39:17.692Z,8.18
2019-05-18T12:41:49.260Z,10.58
2019-05-18T12:44:18.597Z,11.10
2019-05-18T12:46:48.339Z,11.05
2019-05-18T12:49:17.864Z,11.20
2019-05-18T12:51:47.202Z,9.88
2019-05-18T12:54:28.743Z,9.50
2019-05-18T12:56:47.802Z,9.98
2019-05-18T12:59:21.174Z,12.07
2019-05-18T13:01:50.620Z,12.00
2019-05-18T13:04:19.949Z,13.03
2019-05-18T13:06:49.322Z,13.58
2019-05-18T13:09:18.669Z,12.28
2019-05-18T13:11:48.059Z,12.47
2019-05-18T13:14:17.502Z,10.90
2019-05-18T13:16:48.201Z,10.95
2019-05-18T13:19:17.535Z,11.35
2019-05-18T13:21:46.945Z,10.58
2019-05-18T13:24:16.435Z,10.45
2019-05-18T13:26:45.810Z,10.68
2019-05-18T13:29:15.172Z,10.32
2019-05-18T13:31:44.523Z,11.22
2019-05-18T13:34:13.904Z,9.70
2019-05-18T13:36:43.346Z,9.73
2019-05-18T13:39:12.676Z,7.42
2019-05-18T13:41:42.048Z,6.00
2019-05-18T13:44:11.487Z,7.20
2019-05-18T13:46:40.810Z,6.50
2019-05-18T13:49:10.281Z,6.92
2019-05-18T13:51:39.743Z,7.62
2019-05-18T13:54:09.105Z,7.12
2019-05-18T13:56:39.989Z,6.60
2019-05-18T13:59:09.442Z,7.00
2019-05-18T14:01:39.429Z,5.20
2019-05-18T14:04:08.905Z,4.72
2019-05-18T14:06:38.677Z,5.37
2019-05-18T14:09:08.057Z,4.70
2019-05-18T14:11:37.381Z,4.20
2019-05-18T14:14:06.726Z,3.70
2019-05-18T14:16:36.096Z,3.92
2019-05-18T14:19:05.457Z,4.35
2019-05-18T14:21:34.890Z,4.78
2019-05-18T14:24:04.665Z,3.92
2019-05-18T14:26:38.505Z,4.35
2019-05-18T14:29:07.949Z,4.47
2019-05-18T14:31:37.298Z,4.50
2019-05-18T14:34:06.700Z,4.47
2019-05-18T14:36:39.396Z,4.22
2019-05-18T14:39:11.489Z,4.30
2019-05-18T14:41:42.555Z,4.55
2019-05-18T14:44:14.818Z,3.95
2019-05-18T14:46:44.209Z,4.42
2019-05-18T14:49:13.632Z,3.85
2019-05-18T14:51:42.957Z,3.80
2019-05-18T14:54:12.262Z,4.40
2019-05-18T14:56:41.606Z,4.17
2019-05-18T14:59:11.009Z,4.28
2019-05-18T15:01:40.378Z,4.17
2019-05-18T15:04:09.778Z,3.67
2019-05-18T15:06:39.202Z,3.95
2019-05-18T15:09:08.668Z,3.92
2019-05-18T15:11:38.047Z,4.83
2019-05-18T15:14:07.411Z,4.40
2019-05-18T15:16:36.787Z,4.53
2019-05-18T15:19:06.225Z,4.17
2019-05-18T15:21:35.761Z,4.20
2019-05-18T15:24:08.542Z,4.53
2019-05-18T15:26:36.178Z,4.45
2019-05-18T15:29:05.747Z,4.22
2019-05-18T15:31:35.090Z,4.60
2019-05-18T15:34:04.454Z,4.83
2019-05-18T15:36:33.831Z,5.10
2019-05-18T15:39:03.155Z,4.85
2019-05-18T15:41:32.533Z,4.50
2019-05-18T15:44:01.823Z,4.55
2019-05-18T15:46:31.163Z,4.92
2019-05-18T15:49:00.551Z,5.80
2019-05-18T15:51:30.069Z,4.90
2019-05-18T15:53:59.525Z,4.15
2019-05-18T15:56:29.048Z,5.20
2019-05-18T15:58:58.520Z,5.60
2019-05-18T16:01:27.875Z,6.35
2019-05-18T16:03:57.198Z,6.85
2019-05-18T16:06:26.610Z,7.35
2019-05-18T16:08:56.035Z,7.28
2019-05-18T16:11:25.421Z,8.75
2019-05-18T16:13:54.787Z,10.68
2019-05-18T16:16:24.192Z,8.58
2019-05-18T16:18:53.618Z,8.20
2019-05-18T16:21:22.915Z,9.00
2019-05-18T16:23:52.287Z,5.12
2019-05-18T16:26:22.162Z,3.27
2019-05-18T16:28:51.722Z,3.58
2019-05-18T16:31:21.051Z,3.30
2019-05-18T16:33:50.377Z,3.67
2019-05-18T16:36:19.811Z,4.60
2019-05-18T16:38:49.186Z,6.03
2019-05-18T16:41:18.536Z,8.13
2019-05-18T16:43:47.872Z,7.83
2019-05-18T16:46:17.134Z,11.55
2019-05-18T16:48:49.051Z,13.62
2019-05-18T16:51:21.180Z,13.35
2019-05-18T16:53:50.614Z,7.37
2019-05-18T16:56:20.073Z,8.75
2019-05-18T16:58:49.361Z,8.90
2019-05-18T17:01:18.674Z,9.40
2019-05-18T17:03:48.074Z,8.35
2019-05-18T17:06:17.447Z,8.53
2019-05-18T17:08:46.918Z,8.13
2019-05-18T17:11:16.275Z,7.95
2019-05-18T17:13:45.619Z,6.15
2019-05-18T17:16:15.052Z,4.72
2019-05-18T17:18:44.412Z,5.65
2019-05-18T17:21:13.803Z,6.20
2019-05-18T17:23:43.145Z,6.30
2019-05-18T17:26:12.495Z,8.33
2019-05-18T17:28:41.855Z,8.35
2019-05-18T17:31:12.856Z,13.25
2019-05-18T17:33:42.197Z,12.05
2019-05-18T17:36:11.530Z,14.03
2019-05-18T17:38:40.922Z,16.27
2019-05-18T17:41:10.321Z,14.98
2019-05-18T17:43:39.866Z,14.05
2019-05-18T17:46:09.312Z,11.90
2019-05-18T17:48:38.682Z,12.00
2019-05-18T17:51:07.996Z,11.22
2019-05-18T17:53:37.332Z,9.93
2019-05-18T17:56:06.687Z,8.55
2019-05-18T17:58:36.054Z,9.50
2019-05-18T18:01:05.429Z,10.65
2019-05-18T18:03:34.733Z,10.58
2019-05-18T18:06:04.081Z,10.05
2019-05-18T18:08:33.422Z,10.30
2019-05-18T18:11:02.889Z,11.03
2019-05-18T18:13:32.164Z,10.63
2019-05-18T18:16:01.618Z,12.05
2019-05-18T18:18:30.968Z,12.33
2019-05-18T18:21:00.287Z,12.18
2019-05-18T18:23:29.625Z,13.05
2019-05-18T18:25:59.198Z,13.43
2019-05-18T18:28:28.522Z,14.80
2019-05-18T18:30:57.916Z,14.80
2019-05-18T18:33:27.362Z,16.50
2019-05-18T18:35:56.731Z,19.85
2019-05-18T18:38:26.084Z,17.50
2019-05-18T18:40:55.439Z,17.70
2019-05-18T18:43:24.769Z,18.62
2019-05-18T18:45:54.099Z,19.80
2019-05-18T18:48:26.290Z,20.02
2019-05-18T18:50:54.718Z,19.92
2019-05-18T18:53:24.062Z,16.12
2019-05-18T18:55:53.447Z,18.30
2019-05-18T18:58:22.785Z,20.43
2019-05-18T19:00:52.151Z,20.50
2019-05-18T19:03:21.487Z,15.75
2019-05-18T19:05:50.819Z,16.60
2019-05-18T19:08:20.307Z,17.55
2019-05-18T19:10:49.697Z,19.55
2019-05-18T19:13:19.063Z,18.80
2019-05-18T19:15:48.463Z,19.80
2019-05-18T19:18:17.828Z,19.25
2019-05-18T19:20:47.178Z,20.08
2019-05-18T19:23:16.539Z,21.12
2019-05-18T19:25:45.860Z,23.15
2019-05-18T19:28:15.275Z,23.18
2019-05-18T19:30:44.603Z,22.37
2019-05-18T19:33:14.006Z,21.37
2019-05-18T19:35:43.360Z,22.00
2019-05-18T19:38:12.700Z,23.98
2019-05-18T19:40:41.979Z,23.67
2019-05-18T19:43:11.350Z,20.02
2019-05-18T19:45:40.657Z,22.25
2019-05-18T19:48:10.099Z,23.12
2019-05-18T19:50:39.408Z,23.98
2019-05-18T19:53:08.772Z,24.30
2019-05-18T19:55:38.107Z,23.18
2019-05-18T19:58:09.244Z,22.85
2019-05-18T20:00:38.894Z,23.20
2019-05-18T20:03:08.203Z,24.82
2019-05-18T20:05:37.548Z,25.02
2019-05-18T20:08:06.960Z,24.55
2019-05-18T20:10:36.275Z,25.32
2019-05-18T20:13:05.663Z,26.17
2019-05-18T20:15:35.024Z,29.72
2019-05-18T20:18:04.362Z,26.75
2019-05-18T20:20:33.698Z,25.85
2019-05-18T20:23:03.073Z,26.57
2019-05-18T20:25:32.389Z,26.45
2019-05-18T20:28:01.713Z,25.20
2019-05-18T20:30:31.124Z,25.25
2019-05-18T20:33:00.446Z,25.20
2019-05-18T20:35:31.061Z,24.57
2019-05-18T20:38:03.176Z,24.87
2019-05-18T20:40:32.631Z,23.90
2019-05-18T20:43:02.680Z,24.37
2019-05-18T20:45:32.016Z,25.97
2019-05-18T20:48:01.419Z,26.42
2019-05-18T20:50:30.831Z,27.80
2019-05-18T20:53:00.190Z,28.20
2019-05-18T20:55:29.567Z,26.97
2019-05-18T20:57:58.963Z,26.73
2019-05-18T21:00:31.030Z,26.52
2019-05-18T21:03:00.442Z,24.43
2019-05-18T21:05:29.832Z,26.17
2019-05-18T21:07:59.262Z,29.77
2019-05-18T21:10:28.642Z,34.10
2019-05-18T21:12:57.971Z,30.60
2019-05-18T21:15:30.752Z,29.15
2019-05-18T21:18:00.122Z,27.95
2019-05-18T21:20:29.571Z,28.05
2019-05-18T21:22:58.896Z,27.50
2019-05-18T21:25:28.330Z,26.82
2019-05-18T21:27:57.693Z,30.92
2019-05-18T21:30:27.110Z,29.60
2019-05-18T21:32:56.447Z,30.12
2019-05-18T21:35:25.910Z,29.02
2019-05-18T21:37:55.289Z,27.95
2019-05-18T21:40:26.366Z,28.67
2019-05-18T21:42:55.904Z,29.12
2019-05-18T21:45:25.277Z,27.80
2019-05-18T21:47:54.664Z,28.52
2019-05-18T21:50:24.031Z,29.35
2019-05-18T21:52:53.405Z,28.55
2019-05-18T21:55:22.814Z,29.20
2019-05-18T21:57:52.146Z,29.00
2019-05-18T22:00:23.993Z,28.90
2019-05-18T22:02:53.422Z,22.27
2019-05-18T22:05:22.815Z,28.92
2019-05-18T22:07:52.168Z,29.18
2019-05-18T22:10:25.775Z,30.00
2019-05-18T22:12:52.649Z,30.95
2019-05-18T22:15:22.006Z,31.97
2019-05-18T22:18:03.777Z,32.20
2019-05-18T22:20:34.113Z,32.70
2019-05-18T22:23:03.469Z,34.08
2019-05-18T22:25:32.852Z,33.60
2019-05-18T22:28:02.236Z,34.18
2019-05-18T22:30:31.559Z,35.05
2019-05-18T22:33:00.921Z,34.92
2019-05-18T22:35:30.333Z,36.40
2019-05-18T22:37:59.668Z,36.65
2019-05-18T22:40:28.929Z,36.65
2019-05-18T22:42:58.265Z,35.98
2019-05-18T22:45:27.633Z,36.80
2019-05-18T22:47:56.957Z,36.95
2019-05-18T22:50:26.283Z,34.83
2019-05-18T22:52:55.626Z,34.95
2019-05-18T22:55:24.958Z,35.60
2019-05-18T22:57:54.310Z,36.85
2019-05-18T23:00:23.843Z,35.35
2019-05-18T23:02:53.175Z,35.03
2019-05-18T23:05:22.507Z,35.78
2019-05-18T23:07:51.844Z,33.70
2019-05-18T23:10:21.148Z,34.55
2019-05-18T23:12:50.482Z,35.45
2019-05-18T23:15:19.821Z,34.33
2019-05-18T23:17:49.092Z,35.30
2019-05-18T23:20:18.541Z,34.73
2019-05-18T23:22:47.919Z,34.53
2019-05-18T23:25:17.332Z,34.18
2019-05-18T23:27:46.643Z,33.80
2019-05-18T23:30:15.995Z,34.55
2019-05-18T23:32:45.320Z,35.80
2019-05-18T23:35:14.675Z,35.88
2019-05-18T23:37:43.980Z,36.42
2019-05-18T23:40:13.595Z,37.55
2019-05-18T23:42:42.920Z,38.17
2019-05-18T23:45:12.224Z,38.80
2019-05-18T23:47:41.604Z,39.73
2019-05-18T23:50:11.060Z,42.58
2019-05-18T23:52:40.416Z,40.63
2019-05-18T23:55:10.749Z,41.13
2019-05-18T23:57:40.018Z,41.60
